Time;durP1;ratioP1;P1;durP2;ratioP2;P2;SDS_P1;SDS_P2;PMS_P1;PMS_P2;Temp;Humidity;BMP_temperature;BMP_pressure;BME280_temperature;BME280_humidity;BME280_pressure;Samples;Min_cycle;Max_cycle;Signal;HPM_P1;HPM_P2
2024/01/19 00:00:51;;;;;;;126.65;63.78;;;-0.70;99.90;;;;;;4966711;28;20039;-74
2024/01/19 00:03:18;;;;;;;134.27;66.32;;;-0.70;99.90;;;;;;4970897;28;20056;-71
2024/01/19 00:05:45;;;;;;;124.13;63.42;;;-0.70;99.90;;;;;;4952906;28;20049;-72
2024/01/19 00:08:11;;;;;;;122.05;62.42;;;-0.70;99.90;;;;;;4965333;28;20042;-73
2024/01/19 00:10:38;;;;;;;135.40;64.03;;;-0.70;99.90;;;;;;4961776;28;20057;-70
2024/01/19 00:13:05;;;;;;;129.40;60.20;;;-0.70;99.90;;;;;;4966624;28;20057;-71
2024/01/19 00:15:32;;;;;;;123.43;61.72;;;-0.80;99.90;;;;;;4950939;28;20458;-73
2024/01/19 00:18:08;;;;;;;120.47;60.60;;;-0.80;99.90;;;;;;4971021;28;20042;-73
2024/01/19 00:20:35;;;;;;;125.45;61.47;;;-0.80;99.90;;;;;;4967486;28;20557;-73
2024/01/19 00:23:01;;;;;;;129.20;61.72;;;-0.70;99.90;;;;;;4947845;28;20042;-71
2024/01/19 00:25:28;;;;;;;120.93;61.85;;;-0.70;99.90;;;;;;4950124;28;20129;-71
2024/01/19 00:27:55;;;;;;;116.15;56.63;;;-0.70;99.90;;;;;;4967770;28;20066;-72
2024/01/19 00:30:22;;;;;;;112.38;56.33;;;-0.70;99.90;;;;;;4967820;28;20047;-73
2024/01/19 00:32:49;;;;;;;111.13;55.90;;;-0.70;99.90;;;;;;4961408;28;20395;-75
2024/01/19 00:35:16;;;;;;;100.53;54.92;;;-0.70;99.90;;;;;;4952202;28;20035;-72
2024/01/19 00:37:47;;;;;;;106.00;54.50;;;-0.80;99.90;;;;;;4919197;28;20054;-73
2024/01/19 00:40:14;;;;;;;113.72;54.63;;;-0.80;99.90;;;;;;4944000;28;20130;-72
2024/01/19 00:42:42;;;;;;;100.57;56.20;;;-0.80;99.90;;;;;;4967144;28;20077;-73
2024/01/19 00:45:09;;;;;;;101.25;53.38;;;-0.80;99.90;;;;;;4979702;28;20045;-73
2024/01/19 00:47:36;;;;;;;100.68;53.40;;;-0.80;99.90;;;;;;4971949;28;20058;-74
2024/01/19 00:50:05;;;;;;;104.63;53.75;;;-0.80;99.90;;;;;;4970578;28;20078;-74
2024/01/19 00:52:32;;;;;;;91.72;49.83;;;-0.80;99.90;;;;;;4971004;28;20093;-73
2024/01/19 00:54:59;;;;;;;87.60;48.03;;;-0.90;99.90;;;;;;4967447;28;20085;-73
2024/01/19 00:57:26;;;;;;;109.47;49.20;;;-1.00;99.90;;;;;;4956619;28;20713;-73
2024/01/19 00:59:54;;;;;;;81.65;42.67;;;-1.10;99.90;;;;;;4969891;28;20116;-72
2024/01/19 01:02:22;;;;;;;81.00;43.75;;;-1.20;99.90;;;;;;4966204;28;20053;-73
2024/01/19 01:04:49;;;;;;;72.85;41.47;;;-1.30;99.90;;;;;;4969276;28;20042;-73
2024/01/19 01:07:16;;;;;;;72.88;38.05;;;-1.40;99.90;;;;;;4967422;28;20035;-71
2024/01/19 01:09:42;;;;;;;76.97;40.05;;;-1.50;99.90;;;;;;4970806;28;20154;-74
2024/01/19 01:12:09;;;;;;;71.15;39.28;;;-1.60;99.90;;;;;;4964967;28;20046;-72
2024/01/19 01:14:36;;;;;;;73.68;39.70;;;-1.70;99.90;;;;;;4963425;28;20449;-72
2024/01/19 01:17:03;;;;;;;73.15;39.50;;;-1.80;99.90;;;;;;4968880;28;20671;-74
2024/01/19 01:19:31;;;;;;;69.25;39.80;;;-1.90;99.90;;;;;;4989154;28;20065;-74
2024/01/19 01:21:59;;;;;;;74.20;36.65;;;-2.00;99.90;;;;;;4970582;28;20056;-74
2024/01/19 01:24:26;;;;;;;70.53;39.90;;;-2.10;99.90;;;;;;4972348;28;20047;-74
2024/01/19 01:26:53;;;;;;;74.53;40.15;;;-2.10;99.90;;;;;;4970352;28;20056;-73
2024/01/19 01:29:20;;;;;;;71.70;38.15;;;-2.20;99.90;;;;;;4973825;28;22031;-74
2024/01/19 01:31:48;;;;;;;70.50;35.83;;;-2.20;99.90;;;;;;4964492;28;20050;-74
2024/01/19 01:34:15;;;;;;;69.65;38.90;;;-2.30;99.90;;;;;;4971658;28;20053;-74
2024/01/19 01:36:42;;;;;;;69.45;37.33;;;-2.40;99.90;;;;;;4981977;28;20061;-73
2024/01/19 01:39:12;;;;;;;79.15;38.58;;;-2.40;99.90;;;;;;4971518;28;20050;-73
2024/01/19 01:41:44;;;;;;;81.20;39.05;;;-2.50;99.90;;;;;;4973883;28;20077;-73
2024/01/19 01:44:11;;;;;;;71.97;39.08;;;-2.50;99.90;;;;;;4972219;28;20050;-73
2024/01/19 01:46:38;;;;;;;74.22;37.30;;;-2.50;99.90;;;;;;4958471;28;20051;-74
2024/01/19 01:49:05;;;;;;;71.57;38.10;;;-2.60;99.90;;;;;;4974510;28;20065;-73
2024/01/19 01:51:33;;;;;;;85.03;37.75;;;-2.60;99.90;;;;;;4955579;28;20051;-71
2024/01/19 01:54:01;;;;;;;65.30;34.95;;;-2.60;99.90;;;;;;4952049;28;20449;-73
2024/01/19 01:56:29;;;;;;;78.28;35.13;;;-2.60;99.90;;;;;;4975504;28;20061;-73
2024/01/19 01:58:56;;;;;;;69.90;34.65;;;-2.60;99.90;;;;;;4974258;28;20082;-73
2024/01/19 02:01:23;;;;;;;63.00;34.22;;;-2.60;99.90;;;;;;4984218;28;20042;-74
2024/01/19 02:03:51;;;;;;;63.08;30.08;;;-2.60;99.90;;;;;;4973192;28;20555;-72
2024/01/19 02:06:18;;;;;;;62.40;33.55;;;-2.60;99.90;;;;;;4974348;28;20057;-75
2024/01/19 02:08:45;;;;;;;65.35;31.83;;;-2.60;99.90;;;;;;4968712;28;20501;-74
2024/01/19 02:11:13;;;;;;;70.80;35.13;;;-2.70;99.90;;;;;;4969324;28;20054;-74
2024/01/19 02:13:39;;;;;;;64.38;31.67;;;-2.60;99.90;;;;;;4971834;28;20632;-74
2024/01/19 02:16:07;;;;;;;63.15;31.85;;;-2.60;99.90;;;;;;4985311;28;20963;-73
2024/01/19 02:18:33;;;;;;;62.30;32.30;;;-2.60;99.90;;;;;;4973484;28;20046;-73
2024/01/19 02:21:01;;;;;;;72.50;34.22;;;-2.50;99.90;;;;;;4971332;28;20116;-73
2024/01/19 02:23:34;;;;;;;66.22;32.28;;;-2.40;99.90;;;;;;4967995;28;20054;-73
2024/01/19 02:26:04;;;;;;;64.05;31.10;;;-2.40;99.90;;;;;;4969486;28;20049;-73
2024/01/19 02:28:31;;;;;;;73.38;31.60;;;-2.50;99.90;;;;;;4957672;28;20680;-73
2024/01/19 02:30:58;;;;;;;61.50;31.77;;;-2.50;99.90;;;;;;4952753;28;20057;-72
2024/01/19 02:33:24;;;;;;;56.10;29.77;;;-2.40;99.90;;;;;;4971031;28;20092;-73
2024/01/19 02:35:51;;;;;;;67.63;30.15;;;-2.40;99.90;;;;;;4966678;28;20055;-72
2024/01/19 02:38:18;;;;;;;55.10;28.27;;;-2.40;99.90;;;;;;4954468;28;20051;-74
2024/01/19 02:40:45;;;;;;;49.33;28.70;;;-2.40;99.90;;;;;;4959948;28;20144;-74
2024/01/19 02:43:11;;;;;;;53.80;27.52;;;-2.40;99.90;;;;;;4982731;28;20101;-74
2024/01/19 02:45:38;;;;;;;50.15;28.60;;;-2.40;99.90;;;;;;4969103;28;20046;-70
2024/01/19 02:48:05;;;;;;;44.72;25.92;;;-2.30;99.90;;;;;;4970705;28;20304;-72
2024/01/19 02:50:32;;;;;;;58.53;27.88;;;-2.20;99.90;;;;;;4982476;28;20054;-73
2024/01/19 02:52:59;;;;;;;54.15;26.63;;;-2.20;99.90;;;;;;4954539;28;21083;-73
2024/01/19 02:55:26;;;;;;;47.88;25.67;;;-2.10;99.90;;;;;;4972685;28;20199;-73
2024/01/19 02:57:53;;;;;;;41.55;23.30;;;-2.10;99.90;;;;;;4950475;28;20742;-72
2024/01/19 03:00:19;;;;;;;45.70;25.40;;;-2.10;99.90;;;;;;4964973;28;20157;-71
2024/01/19 03:02:46;;;;;;;39.13;24.85;;;-2.00;99.90;;;;;;4979203;28;20035;-70
2024/01/19 03:05:13;;;;;;;40.72;24.27;;;-1.90;99.90;;;;;;4969488;28;20422;-74
2024/01/19 03:07:40;;;;;;;38.25;22.80;;;-1.80;99.90;;;;;;4971596;28;20586;-74
2024/01/19 03:10:07;;;;;;;38.05;23.10;;;-1.70;99.90;;;;;;4965310;28;20521;-72
2024/01/19 03:12:34;;;;;;;29.98;22.27;;;-1.60;99.90;;;;;;4975358;28;20431;-72
2024/01/19 03:15:01;;;;;;;39.20;23.10;;;-1.60;99.90;;;;;;4969502;28;20152;-73
2024/01/19 03:17:28;;;;;;;36.05;21.90;;;-1.50;99.90;;;;;;4971114;28;20692;-73
2024/01/19 03:19:55;;;;;;;34.03;21.48;;;-1.50;99.90;;;;;;4972056;28;20133;-71
2024/01/19 03:22:22;;;;;;;34.47;20.88;;;-1.40;99.90;;;;;;4962867;28;20148;-73
2024/01/19 03:24:48;;;;;;;28.38;20.90;;;-1.40;99.90;;;;;;4950947;28;20046;-74
2024/01/19 03:27:15;;;;;;;29.58;21.00;;;-1.40;99.90;;;;;;4969958;28;20066;-73
2024/01/19 03:29:42;;;;;;;32.85;21.88;;;-1.40;99.90;;;;;;4965397;28;20170;-75
2024/01/19 03:32:09;;;;;;;31.92;20.40;;;-1.30;99.90;;;;;;4976474;28;20050;-73
2024/01/19 03:34:36;;;;;;;27.30;20.30;;;-1.30;99.90;;;;;;4973499;28;20061;-72
2024/01/19 03:37:03;;;;;;;28.23;21.50;;;-1.20;99.90;;;;;;4961791;28;20050;-71
2024/01/19 03:39:32;;;;;;;29.20;21.20;;;-1.20;99.90;;;;;;4967470;28;20049;-71
2024/01/19 03:41:59;;;;;;;23.27;20.83;;;-1.10;99.90;;;;;;4968941;28;20826;-72
2024/01/19 03:44:26;;;;;;;27.85;21.58;;;-1.10;99.90;;;;;;4951274;28;20054;-74
2024/01/19 03:46:54;;;;;;;32.75;22.00;;;-1.10;99.90;;;;;;4965271;28;20066;-74
2024/01/19 03:49:20;;;;;;;26.45;22.42;;;-1.10;99.90;;;;;;4971500;28;20468;-73
2024/01/19 03:52:16;;;;;;;28.40;22.15;;;-1.10;99.90;;;;;;4975666;28;20035;-71
2024/01/19 03:54:43;;;;;;;23.48;20.85;;;-1.00;99.90;;;;;;4962965;28;20046;-73
2024/01/19 03:57:10;;;;;;;24.70;20.55;;;-1.00;99.90;;;;;;4967037;28;20038;-70
2024/01/19 03:59:37;;;;;;;25.67;21.15;;;-1.00;99.90;;;;;;4982608;28;20625;-73
2024/01/19 04:02:05;;;;;;;23.58;21.13;;;-1.00;99.90;;;;;;4953746;28;20165;-73
2024/01/19 04:04:32;;;;;;;27.67;21.20;;;-0.90;99.90;;;;;;4952645;28;20130;-72
2024/01/19 04:06:59;;;;;;;23.52;21.38;;;-0.90;99.90;;;;;;4954690;28;20090;-72
2024/01/19 04:09:26;;;;;;;25.55;22.17;;;-0.90;99.90;;;;;;4948898;28;20149;-73
2024/01/19 04:11:52;;;;;;;25.88;21.50;;;-0.90;99.90;;;;;;4986021;28;20045;-72
2024/01/19 04:14:19;;;;;;;23.77;20.90;;;-0.90;99.90;;;;;;4956740;28;20112;-72
2024/01/19 04:16:46;;;;;;;27.15;20.33;;;-0.90;99.90;;;;;;4974820;28;20112;-75
2024/01/19 04:19:14;;;;;;;24.35;20.52;;;-0.90;99.90;;;;;;4988272;28;20896;-72
2024/01/19 04:21:41;;;;;;;23.58;21.13;;;-0.80;99.90;;;;;;4968494;28;20541;-72
2024/01/19 04:24:08;;;;;;;23.27;20.70;;;-0.80;99.90;;;;;;4985939;28;21140;-73
2024/01/19 04:26:37;;;;;;;23.55;20.75;;;-0.80;99.90;;;;;;4958426;28;20058;-72
2024/01/19 04:29:04;;;;;;;27.65;21.30;;;-0.80;99.90;;;;;;4969477;28;20172;-74
2024/01/19 04:31:31;;;;;;;26.83;21.67;;;-0.80;99.90;;;;;;4968367;28;20046;-74
2024/01/19 04:33:57;;;;;;;26.75;20.77;;;-0.80;99.90;;;;;;4970814;28;20046;-74
2024/01/19 04:36:24;;;;;;;22.05;19.98;;;-0.90;99.90;;;;;;4970266;28;20593;-74
2024/01/19 04:38:52;;;;;;;24.98;20.38;;;-0.90;99.90;;;;;;4966924;28;20089;-74
2024/01/19 04:41:19;;;;;;;21.77;19.88;;;-0.90;99.90;;;;;;4965587;28;20070;-74
2024/01/19 04:43:46;;;;;;;25.67;20.33;;;-1.00;99.90;;;;;;4970010;28;20082;-75
2024/01/19 04:46:12;;;;;;;23.90;21.48;;;-1.00;99.90;;;;;;4966330;28;20133;-75
2024/01/19 04:48:39;;;;;;;22.52;19.90;;;-1.00;99.90;;;;;;4970246;28;20030;-75
2024/01/19 04:51:07;;;;;;;25.80;21.42;;;-1.00;99.90;;;;;;4969471;28;20422;-74
2024/01/19 04:53:33;;;;;;;23.48;21.17;;;-1.00;99.90;;;;;;4969798;28;20051;-74
2024/01/19 04:56:04;;;;;;;27.48;22.17;;;-1.00;99.90;;;;;;4980205;28;20042;-74
2024/01/19 04:58:35;;;;;;;25.08;21.77;;;-1.10;99.90;;;;;;4979171;28;20058;-73
2024/01/19 05:01:03;;;;;;;31.83;21.73;;;-1.00;99.90;;;;;;4973451;28;20053;-73
2024/01/19 05:03:31;;;;;;;24.60;21.75;;;-1.00;99.90;;;;;;4967440;28;20129;-72
2024/01/19 05:05:57;;;;;;;23.67;21.33;;;-1.00;99.90;;;;;;4967971;28;20120;-72
2024/01/19 05:08:25;;;;;;;24.30;21.30;;;-1.00;99.90;;;;;;4986008;28;20054;-73
2024/01/19 05:10:52;;;;;;;24.95;21.13;;;-1.00;99.90;;;;;;4965112;28;20042;-71
2024/01/19 05:13:18;;;;;;;33.45;21.17;;;-1.00;99.90;;;;;;4970833;28;20457;-72
2024/01/19 05:15:45;;;;;;;23.58;20.70;;;-1.00;99.90;;;;;;4962094;28;20526;-74
2024/01/19 05:18:12;;;;;;;26.50;20.75;;;-1.00;99.90;;;;;;4968679;28;20552;-74
2024/01/19 05:20:38;;;;;;;29.20;21.52;;;-1.10;99.90;;;;;;4960706;28;20055;-74
2024/01/19 05:23:06;;;;;;;22.38;20.05;;;-1.10;99.90;;;;;;4943796;28;20517;-73
2024/01/19 05:25:33;;;;;;;28.30;20.95;;;-1.10;99.90;;;;;;4954625;28;20112;-74
2024/01/19 05:28:00;;;;;;;27.40;21.20;;;-1.00;99.90;;;;;;4971383;28;20056;-73
2024/01/19 05:30:27;;;;;;;29.23;21.13;;;-1.00;99.90;;;;;;4973662;28;20060;-73
2024/01/19 05:32:54;;;;;;;28.88;21.38;;;-1.00;99.90;;;;;;4970660;28;20576;-71
2024/01/19 05:35:21;;;;;;;30.38;20.45;;;-0.90;99.90;;;;;;4954429;28;20065;-72
2024/01/19 05:37:48;;;;;;;31.63;20.92;;;-0.90;99.90;;;;;;4975278;28;20093;-73
2024/01/19 05:40:15;;;;;;;31.02;20.02;;;-0.90;99.90;;;;;;4953400;28;21469;-72
2024/01/19 05:42:45;;;;;;;28.45;19.92;;;-0.90;99.90;;;;;;4970453;28;20054;-73
2024/01/19 05:45:12;;;;;;;30.25;21.88;;;-0.90;99.90;;;;;;4944787;28;20113;-74
2024/01/19 05:47:40;;;;;;;34.85;22.30;;;-0.90;99.90;;;;;;4972985;28;20129;-74
2024/01/19 05:50:08;;;;;;;30.25;21.55;;;-0.90;99.90;;;;;;4972344;28;20050;-72
2024/01/19 05:52:35;;;;;;;34.05;21.05;;;-0.90;99.90;;;;;;4965872;28;20078;-72
2024/01/19 05:55:02;;;;;;;34.03;21.92;;;-0.90;99.90;;;;;;4964210;28;20410;-72
2024/01/19 05:57:29;;;;;;;30.88;21.73;;;-0.90;99.90;;;;;;4972749;28;20043;-73
2024/01/19 05:59:56;;;;;;;32.47;22.35;;;-0.90;99.90;;;;;;4975028;28;20043;-73
2024/01/19 06:02:23;;;;;;;30.55;22.77;;;-0.90;99.90;;;;;;4971762;28;20042;-75
2024/01/19 06:04:49;;;;;;;37.90;24.05;;;-0.80;99.90;;;;;;4967688;28;20042;-72
2024/01/19 06:07:16;;;;;;;38.80;24.55;;;-0.70;99.90;;;;;;4971793;28;20038;-75
2024/01/19 06:09:44;;;;;;;38.95;25.05;;;-0.70;99.90;;;;;;4974196;28;20105;-74
2024/01/19 06:12:11;;;;;;;34.67;24.02;;;-0.70;99.90;;;;;;4969694;28;20520;-74
2024/01/19 06:14:38;;;;;;;40.22;24.15;;;-0.80;99.90;;;;;;4977441;28;21362;-72
2024/01/19 06:17:05;;;;;;;38.92;23.58;;;-0.80;99.90;;;;;;4970448;28;20066;-75
2024/01/19 06:19:32;;;;;;;38.83;24.73;;;-0.80;99.90;;;;;;4973131;28;20039;-72
2024/01/19 06:21:59;;;;;;;41.60;23.65;;;-0.80;99.90;;;;;;4969248;28;20062;-74
2024/01/19 06:24:26;;;;;;;41.47;26.30;;;-0.80;99.90;;;;;;4985703;28;20136;-72
2024/01/19 06:26:52;;;;;;;38.97;24.60;;;-0.80;99.90;;;;;;4975090;28;20133;-72
2024/01/19 06:29:19;;;;;;;49.65;25.23;;;-0.90;99.90;;;;;;4971478;28;20653;-70
2024/01/19 06:31:47;;;;;;;38.25;23.70;;;-0.90;99.90;;;;;;4955492;28;20042;-72
2024/01/19 06:34:14;;;;;;;46.55;23.95;;;-1.00;99.90;;;;;;4950247;28;20062;-73
2024/01/19 06:36:45;;;;;;;47.63;25.50;;;-1.00;99.90;;;;;;4958747;28;20461;-70
2024/01/19 06:39:12;;;;;;;43.17;24.48;;;-1.00;99.90;;;;;;4963176;28;20101;-71
2024/01/19 06:41:44;;;;;;;46.95;24.95;;;-1.10;99.90;;;;;;4973290;28;22683;-74
2024/01/19 06:44:11;;;;;;;48.50;24.65;;;-1.10;99.90;;;;;;4964954;28;20041;-74
2024/01/19 06:46:47;;;;;;;48.70;26.85;;;-1.20;99.90;;;;;;4958890;28;20047;-73
2024/01/19 06:49:14;;;;;;;52.25;27.73;;;-1.20;99.90;;;;;;4952631;28;20046;-72
2024/01/19 06:51:42;;;;;;;55.67;27.55;;;-1.20;99.90;;;;;;4968404;28;20045;-72
2024/01/19 06:54:09;;;;;;;49.28;28.80;;;-1.30;99.90;;;;;;4976120;28;20493;-72
2024/01/19 06:56:36;;;;;;;51.28;27.52;;;-1.30;99.90;;;;;;4962780;28;20797;-72
2024/01/19 06:59:03;;;;;;;53.65;29.50;;;-1.30;99.90;;;;;;4969486;28;20073;-72
2024/01/19 07:01:29;;;;;;;60.20;29.95;;;-1.30;99.90;;;;;;4982415;28;20059;-71
2024/01/19 07:03:57;;;;;;;61.00;28.23;;;-1.30;99.90;;;;;;4982680;28;20061;-70
2024/01/19 07:06:24;;;;;;;60.67;32.42;;;-1.30;99.90;;;;;;4967292;28;20133;-72
2024/01/19 07:08:51;;;;;;;65.35;32.50;;;-1.30;99.90;;;;;;4971908;28;20555;-72
2024/01/19 07:11:19;;;;;;;75.68;33.88;;;-1.40;99.90;;;;;;4966763;28;20497;-73
2024/01/19 07:13:49;;;;;;;68.75;34.00;;;-1.40;99.90;;;;;;4965750;28;20134;-72
2024/01/19 07:16:16;;;;;;;86.47;36.22;;;-1.40;99.90;;;;;;4965660;28;20050;-72
2024/01/19 07:18:43;;;;;;;92.05;38.65;;;-1.50;99.90;;;;;;4971443;28;20769;-73
2024/01/19 07:21:10;;;;;;;101.65;36.72;;;-1.50;99.90;;;;;;4972014;28;20042;-73
2024/01/19 07:23:37;;;;;;;97.85;41.10;;;-1.60;99.90;;;;;;4964751;28;20132;-72
2024/01/19 07:26:04;;;;;;;98.93;42.17;;;-1.60;99.90;;;;;;4971243;28;20142;-73
2024/01/19 07:28:31;;;;;;;88.53;34.63;;;-1.50;99.90;;;;;;4969846;28;20141;-73
2024/01/19 07:30:58;;;;;;;115.05;42.67;;;-1.60;99.90;;;;;;4966287;28;20128;-72
2024/01/19 07:33:25;;;;;;;128.88;48.13;;;-1.60;99.90;;;;;;4966657;28;20132;-74
2024/01/19 07:35:59;;;;;;;120.82;47.60;;;-1.50;99.90;;;;;;4961408;28;20043;-73
2024/01/19 07:38:27;;;;;;;131.40;46.33;;;-1.50;99.90;;;;;;4951389;28;20470;-72
2024/01/19 07:40:54;;;;;;;140.75;48.55;;;-1.50;99.90;;;;;;4972239;28;20039;-73
2024/01/19 07:43:21;;;;;;;135.93;48.85;;;-1.40;99.90;;;;;;4970267;28;20255;-72
2024/01/19 07:45:48;;;;;;;134.55;47.60;;;-1.40;99.90;;;;;;4964849;28;20046;-73
2024/01/19 07:48:15;;;;;;;126.95;44.42;;;-1.30;99.90;;;;;;4967598;28;20662;-72
2024/01/19 07:50:42;;;;;;;128.00;45.95;;;-1.30;99.90;;;;;;4971525;28;20046;-73
2024/01/19 07:53:09;;;;;;;142.82;48.33;;;-1.40;99.90;;;;;;4966181;28;20141;-72
2024/01/19 07:55:36;;;;;;;160.38;51.65;;;-1.40;99.90;;;;;;4969914;28;20606;-71
2024/01/19 07:58:03;;;;;;;151.57;48.83;;;-1.40;99.90;;;;;;4971545;28;20042;-73
2024/01/19 08:00:29;;;;;;;160.30;54.55;;;-1.40;99.90;;;;;;4968917;28;20073;-73
2024/01/19 08:02:56;;;;;;;148.95;49.33;;;-1.40;99.90;;;;;;4967382;28;20394;-73
2024/01/19 08:05:23;;;;;;;177.70;55.45;;;-1.40;99.90;;;;;;4964749;28;20509;-72
2024/01/19 08:07:52;;;;;;;170.65;57.15;;;-1.40;99.90;;;;;;4969853;28;20070;-73
2024/01/19 08:10:19;;;;;;;171.73;51.53;;;-1.40;99.90;;;;;;4953436;28;20622;-72
2024/01/19 08:12:46;;;;;;;175.07;54.90;;;-1.30;99.90;;;;;;4969047;28;20049;-74
2024/01/19 08:15:14;;;;;;;168.48;49.67;;;-1.40;99.90;;;;;;4976208;28;20050;-72
2024/01/19 08:17:40;;;;;;;194.35;57.88;;;-1.30;99.90;;;;;;4979459;28;20037;-75
2024/01/19 08:20:10;;;;;;;165.85;56.08;;;-1.30;99.90;;;;;;4971922;28;20058;-71
2024/01/19 08:22:37;;;;;;;177.35;57.95;;;-1.30;99.90;;;;;;4980615;28;20070;-73
2024/01/19 08:25:04;;;;;;;176.30;56.20;;;-1.30;99.90;;;;;;4969236;28;20050;-71
2024/01/19 08:27:32;;;;;;;169.90;58.47;;;-1.20;99.90;;;;;;4952346;28;20577;-72
2024/01/19 08:29:59;;;;;;;174.32;56.60;;;-1.10;99.90;;;;;;4950538;28;20049;-72
2024/01/19 08:32:26;;;;;;;156.45;53.05;;;-1.10;99.90;;;;;;4964806;28;20176;-72
2024/01/19 08:34:53;;;;;;;173.82;59.63;;;-1.10;99.90;;;;;;4970124;28;20065;-72
2024/01/19 08:37:20;;;;;;;168.55;53.53;;;-1.10;99.90;;;;;;4973132;28;20671;-73
2024/01/19 08:39:47;;;;;;;173.57;56.55;;;-1.10;99.90;;;;;;4970503;28;20069;-72
2024/01/19 08:42:14;;;;;;;154.88;50.92;;;-1.10;99.90;;;;;;4952145;28;20051;-72
2024/01/19 08:44:44;;;;;;;166.10;54.10;;;-1.10;99.90;;;;;;4958216;28;20085;-71
2024/01/19 08:47:11;;;;;;;170.75;55.08;;;-1.10;99.90;;;;;;4947824;28;20034;-72
2024/01/19 08:49:42;;;;;;;163.52;56.70;;;-1.00;99.90;;;;;;4956104;28;20117;-72
2024/01/19 08:52:09;;;;;;;173.40;57.63;;;-1.10;99.90;;;;;;4961782;28;20169;-70
2024/01/19 08:54:35;;;;;;;184.20;60.17;;;-1.00;99.90;;;;;;4957537;28;20087;-72
2024/01/19 08:57:03;;;;;;;148.50;51.53;;;-1.00;99.90;;;;;;4960684;28;20051;-72
2024/01/19 08:59:32;;;;;;;167.68;54.10;;;-1.00;99.90;;;;;;4968402;28;20053;-72
2024/01/19 09:01:59;;;;;;;144.05;51.08;;;-1.00;99.90;;;;;;4961449;28;20051;-73
2024/01/19 09:04:26;;;;;;;151.23;51.78;;;-1.00;99.90;;;;;;4946066;28;21496;-72
2024/01/19 09:06:55;;;;;;;156.93;53.25;;;-1.00;99.90;;;;;;4962448;28;20047;-73
2024/01/19 09:09:24;;;;;;;150.38;51.58;;;-0.90;99.90;;;;;;4952455;28;20125;-73
2024/01/19 09:11:50;;;;;;;158.93;51.35;;;-0.90;99.90;;;;;;4949361;28;20529;-74
2024/01/19 09:14:18;;;;;;;161.38;55.17;;;-0.90;99.90;;;;;;4944894;28;20051;-74
2024/01/19 09:16:45;;;;;;;163.07;52.47;;;-0.90;99.90;;;;;;4966990;28;20049;-73
2024/01/19 09:19:12;;;;;;;139.57;51.15;;;-0.90;99.90;;;;;;4979438;28;20041;-72
2024/01/19 09:21:39;;;;;;;148.90;52.88;;;-0.90;99.90;;;;;;4961909;28;20047;-73
2024/01/19 09:24:07;;;;;;;143.57;53.25;;;-0.80;99.90;;;;;;4950121;28;20049;-73
2024/01/19 09:26:33;;;;;;;153.90;52.03;;;-0.80;99.90;;;;;;4959561;28;20050;-73
2024/01/19 09:29:00;;;;;;;139.02;49.97;;;-0.70;99.90;;;;;;4974197;28;20050;-71
2024/01/19 09:31:27;;;;;;;158.05;56.60;;;-0.80;99.90;;;;;;4961116;28;20050;-73
2024/01/19 09:33:56;;;;;;;147.77;55.05;;;-0.70;99.90;;;;;;4973997;28;20135;-74
2024/01/19 09:36:23;;;;;;;145.50;52.35;;;-0.70;99.90;;;;;;4959348;28;20113;-73
2024/01/19 09:38:50;;;;;;;151.30;52.05;;;-0.70;99.90;;;;;;4968288;28;20762;-72
2024/01/19 09:41:37;;;;;;;141.93;51.85;;;-0.70;99.90;;;;;;4960768;28;20045;-72
2024/01/19 09:44:10;;;;;;;140.27;49.63;;;-0.60;99.90;;;;;;4950344;28;20043;-73
2024/01/19 09:46:47;;;;;;;145.05;49.83;;;-0.60;99.90;;;;;;4946883;28;20423;-73
2024/01/19 09:49:45;;;;;;;149.55;51.42;;;-0.60;99.90;;;;;;4951228;28;20043;-73
2024/01/19 09:52:25;;;;;;;138.40;49.67;;;-0.50;99.90;;;;;;4980103;28;20038;-74
2024/01/19 09:54:53;;;;;;;130.93;51.15;;;-0.50;99.90;;;;;;4970322;28;20660;-74
2024/01/19 09:57:20;;;;;;;138.75;52.42;;;-0.50;99.90;;;;;;4974573;28;20109;-73
2024/01/19 09:59:47;;;;;;;138.20;50.63;;;-0.50;99.90;;;;;;4980571;28;20629;-75
2024/01/19 10:02:17;;;;;;;134.25;51.75;;;-0.50;99.90;;;;;;4971032;28;20038;-74
2024/01/19 10:04:44;;;;;;;137.05;51.85;;;-0.40;99.90;;;;;;4991431;28;20817;-74
2024/01/19 10:07:11;;;;;;;136.75;52.60;;;-0.40;99.90;;;;;;4983168;28;20612;-75
2024/01/19 10:09:40;;;;;;;134.88;52.20;;;-0.40;99.90;;;;;;4961519;28;20038;-75
2024/01/19 10:12:17;;;;;;;129.15;50.92;;;-0.30;99.90;;;;;;4977359;28;20046;-73
2024/01/19 10:14:43;;;;;;;139.02;51.03;;;-0.40;99.90;;;;;;4967189;28;20042;-73
2024/01/19 10:17:10;;;;;;;130.88;49.10;;;-0.40;99.90;;;;;;4956650;28;20039;-71
2024/01/19 10:19:38;;;;;;;127.75;50.20;;;-0.30;99.90;;;;;;4971197;28;20042;-72
2024/01/19 10:22:27;;;;;;;125.45;48.92;;;-0.40;99.90;;;;;;4956256;28;20049;-73
2024/01/19 10:25:15;;;;;;;128.70;45.42;;;-0.40;99.90;;;;;;4949484;28;20046;-74
2024/01/19 10:27:52;;;;;;;112.15;44.92;;;-0.30;99.90;;;;;;4973149;28;20133;-74
2024/01/19 10:30:25;;;;;;;125.32;49.90;;;-0.30;99.90;;;;;;4977126;28;20738;-75
2024/01/19 10:33:06;;;;;;;108.75;44.00;;;-0.30;99.90;;;;;;4969585;28;20054;-72
2024/01/19 10:35:36;;;;;;;113.28;43.50;;;-0.30;99.90;;;;;;4979141;28;20053;-72
2024/01/19 10:38:08;;;;;;;116.28;46.83;;;-0.20;99.90;;;;;;4974876;28;20481;-72
2024/01/19 10:40:35;;;;;;;113.47;45.58;;;-0.20;99.90;;;;;;4972524;28;20129;-73
2024/01/19 10:43:03;;;;;;;105.03;45.03;;;-0.10;99.90;;;;;;4987832;28;20053;-73
2024/01/19 10:45:31;;;;;;;108.07;43.35;;;-0.10;99.90;;;;;;4964327;28;21136;-71
2024/01/19 10:48:03;;;;;;;102.28;43.08;;;-0.10;99.90;;;;;;4966723;28;20043;-72
2024/01/19 10:50:30;;;;;;;114.18;46.17;;;-0.10;99.90;;;;;;4975614;28;20054;-72
2024/01/19 10:52:59;;;;;;;107.38;42.85;;;-0.20;99.90;;;;;;4969096;28;20049;-72
2024/01/19 10:55:30;;;;;;;88.10;37.17;;;-0.20;99.90;;;;;;4962995;28;20054;-71
2024/01/19 10:58:03;;;;;;;104.65;44.03;;;-0.10;99.90;;;;;;4969345;28;20078;-73
2024/01/19 11:00:35;;;;;;;118.63;43.90;;;-0.10;99.90;;;;;;4960297;28;20051;-72
2024/01/19 11:03:03;;;;;;;112.10;45.88;;;0.00;99.90;;;;;;4953750;28;20039;-73
2024/01/19 11:05:31;;;;;;;103.35;43.80;;;0.10;99.90;;;;;;4950862;28;21581;-71
2024/01/19 11:08:00;;;;;;;109.05;45.30;;;0.20;99.90;;;;;;4953135;28;20857;-75
2024/01/19 11:10:29;;;;;;;111.40;46.95;;;0.20;99.90;;;;;;4949831;28;20133;-71
2024/01/19 11:13:00;;;;;;;105.40;45.53;;;0.20;99.90;;;;;;4951269;28;20086;-73
2024/01/19 11:15:38;;;;;;;95.90;37.58;;;0.30;99.90;;;;;;4946867;28;20055;-71
2024/01/19 11:18:06;;;;;;;93.45;42.13;;;0.20;99.90;;;;;;4951997;28;20086;-72
2024/01/19 11:20:34;;;;;;;84.15;36.72;;;0.20;99.90;;;;;;4949351;28;20062;-72
2024/01/19 11:23:02;;;;;;;93.20;40.85;;;0.10;99.90;;;;;;4949838;28;20121;-72
2024/01/19 11:25:48;;;;;;;102.47;43.85;;;0.20;99.90;;;;;;4931349;28;20530;-71
2024/01/19 11:28:39;;;;;;;102.90;43.55;;;0.20;99.90;;;;;;4959488;28;20529;-73
2024/01/19 11:31:22;;;;;;;97.65;46.03;;;0.20;99.90;;;;;;4944206;28;20046;-73
2024/01/19 11:33:49;;;;;;;101.07;45.47;;;0.20;99.90;;;;;;4947275;28;20047;-73
2024/01/19 11:36:38;;;;;;;97.60;44.58;;;0.20;99.90;;;;;;4950305;28;20039;-73
2024/01/19 11:39:06;;;;;;;107.05;44.15;;;0.10;99.90;;;;;;4961611;28;20061;-74
2024/01/19 11:41:33;;;;;;;101.43;46.58;;;0.10;99.90;;;;;;4948565;28;20181;-73
2024/01/19 11:44:03;;;;;;;90.88;44.55;;;0.10;99.90;;;;;;4931006;28;20867;-74
2024/01/19 11:46:46;;;;;;;94.38;43.15;;;0.10;99.90;;;;;;4950145;28;20074;-74
2024/01/19 11:49:38;;;;;;;89.18;40.90;;;0.20;99.90;;;;;;4958480;28;20061;-72
2024/01/19 11:52:17;;;;;;;102.53;44.47;;;0.10;99.90;;;;;;4950953;28;20503;-75
2024/01/19 11:54:44;;;;;;;84.32;40.47;;;0.30;99.90;;;;;;4944640;28;20081;-74
2024/01/19 11:57:18;;;;;;;93.88;43.20;;;0.30;99.90;;;;;;4952143;28;20049;-73
2024/01/19 11:59:46;;;;;;;87.35;41.65;;;0.40;99.90;;;;;;4935379;28;20070;-75
2024/01/19 12:02:26;;;;;;;81.15;39.63;;;0.50;99.90;;;;;;4950494;28;20046;-75
2024/01/19 12:04:57;;;;;;;85.78;40.67;;;0.30;99.90;;;;;;4951505;28;20053;-75
2024/01/19 12:07:23;;;;;;;77.85;33.72;;;0.20;99.90;;;;;;4952488;28;20446;-74
2024/01/19 12:10:06;;;;;;;82.20;39.65;;;0.20;99.90;;;;;;4949071;28;20614;-74
2024/01/19 12:12:34;;;;;;;70.57;35.03;;;0.20;99.90;;;;;;4969653;28;20112;-71
2024/01/19 12:15:03;;;;;;;77.55;36.67;;;0.40;99.90;;;;;;4968529;28;20501;-73
2024/01/19 12:17:30;;;;;;;74.78;39.28;;;0.70;99.90;;;;;;4958496;28;20061;-73
2024/01/19 12:19:58;;;;;;;78.07;37.22;;;0.60;99.90;;;;;;4960615;28;20513;-73
2024/01/19 12:22:26;;;;;;;82.25;39.80;;;0.60;99.90;;;;;;4952709;28;20065;-73
2024/01/19 12:25:12;;;;;;;84.20;42.83;;;0.60;99.90;;;;;;4955895;28;20125;-75
2024/01/19 12:27:39;;;;;;;83.70;41.10;;;0.60;99.90;;;;;;4969355;28;20042;-76
2024/01/19 12:30:14;;;;;;;77.22;39.40;;;0.60;99.90;;;;;;4971122;28;20058;-75